Time;durP1;ratioP1;P1;durP2;ratioP2;P2;SDS_P1;SDS_P2;PMS_P1;PMS_P2;Temp;Humidity;BMP_temperature;BMP_pressure;BME280_temperature;BME280_humidity;BME280_pressure;Samples;Min_cycle;Max_cycle;Signal;HPM_P1;HPM_P2
2022/10/11 00:02:14;;;;;;;59.30;3.80;;;;;;;;;;5115510;28;20444;-70
2022/10/11 00:04:41;;;;;;;58.20;3.20;;;;;;;;;;5115318;28;20456;-70
2022/10/11 00:07:08;;;;;;;58.27;3.20;;;;;;;;;;5114797;28;20450;-70
2022/10/11 00:09:36;;;;;;;59.30;4.00;;;;;;;;;;5114782;28;20448;-70
2022/10/11 00:12:03;;;;;;;64.53;3.20;;;;;;;;;;5115067;28;20968;-70
2022/10/11 00:14:32;;;;;;;59.23;3.53;;;;;;;;;;5115342;28;20459;-70
2022/10/11 00:17:00;;;;;;;59.53;3.37;;;;;;;;;;5115402;28;20476;-70
2022/10/11 00:19:27;;;;;;;59.67;3.20;;;;;;;;;;5114290;28;20452;-70
2022/10/11 00:21:54;;;;;;;60.20;3.60;;;;;;;;;;5115006;28;20451;-70
2022/10/11 00:24:21;;;;;;;58.83;3.20;;;;;;;;;;5114880;27;20456;-70
2022/10/11 00:26:48;;;;;;;58.57;3.30;;;;;;;;;;5114761;28;20468;-70
2022/10/11 00:29:16;;;;;;;61.70;3.57;;;;;;;;;;5114396;28;20820;-70
2022/10/11 00:31:44;;;;;;;60.77;3.57;;;;;;;;;;5114716;28;20456;-70
2022/10/11 00:34:12;;;;;;;58.30;3.40;;;;;;;;;;5114683;28;20496;-70
2022/10/11 00:36:39;;;;;;;59.80;3.87;;;;;;;;;;5114568;28;20474;-70
2022/10/11 00:39:06;;;;;;;58.80;3.57;;;;;;;;;;5114561;28;20447;-70
2022/10/11 00:41:34;;;;;;;60.20;3.80;;;;;;;;;;5114314;27;20451;-70
2022/10/11 00:44:12;;;;;;;58.80;4.10;;;;;;;;;;5114574;28;20449;-70
2022/10/11 00:46:39;;;;;;;57.87;2.90;;;;;;;;;;5114457;28;20485;-70
2022/10/11 00:49:12;;;;;;;58.40;3.53;;;;;;;;;;5114099;28;20817;-70
2022/10/11 00:51:42;;;;;;;59.23;3.30;;;;;;;;;;5114620;28;20448;-70
2022/10/11 00:54:12;;;;;;;59.93;4.70;;;;;;;;;;5114101;28;20488;-70
2022/10/11 00:56:40;;;;;;;59.27;3.63;;;;;;;;;;5114379;28;20475;-70
2022/10/11 00:59:11;;;;;;;58.70;3.47;;;;;;;;;;5114072;28;20447;-70
2022/10/11 01:01:38;;;;;;;61.03;3.27;;;;;;;;;;5113609;27;20447;-70
2022/10/11 01:04:05;;;;;;;59.20;4.20;;;;;;;;;;5114090;28;20450;-70
2022/10/11 01:06:34;;;;;;;58.50;3.13;;;;;;;;;;5114088;28;20478;-70
2022/10/11 01:09:02;;;;;;;58.90;3.60;;;;;;;;;;5113899;28;20453;-69
2022/10/11 01:11:30;;;;;;;59.90;4.00;;;;;;;;;;5114003;28;20935;-69
2022/10/11 01:14:02;;;;;;;60.53;3.83;;;;;;;;;;5113990;27;20488;-69
2022/10/11 01:16:31;;;;;;;58.83;3.73;;;;;;;;;;5113449;28;20477;-69
2022/10/11 01:19:02;;;;;;;58.83;3.60;;;;;;;;;;5113645;28;20458;-69
2022/10/11 01:21:35;;;;;;;58.20;2.90;;;;;;;;;;5114010;28;20464;-69
2022/10/11 01:24:17;;;;;;;58.50;3.00;;;;;;;;;;5113789;28;20971;-69
2022/10/11 01:27:17;;;;;;;60.90;3.50;;;;;;;;;;5113280;28;20469;-69
2022/10/11 01:29:50;;;;;;;59.07;3.60;;;;;;;;;;5050152;28;20847;-69
2022/10/11 01:32:20;;;;;;;58.80;3.87;;;;;;;;;;5050747;28;20461;-69
2022/10/11 01:34:51;;;;;;;60.57;3.50;;;;;;;;;;5081083;27;20453;-69
2022/10/11 01:37:24;;;;;;;59.57;4.37;;;;;;;;;;5113538;28;20442;-68
2022/10/11 01:39:52;;;;;;;58.60;3.30;;;;;;;;;;5113150;28;20460;-69
2022/10/11 01:42:20;;;;;;;59.27;3.63;;;;;;;;;;5113549;28;20821;-69
2022/10/11 01:44:49;;;;;;;59.87;3.87;;;;;;;;;;5112794;28;20448;-69
2022/10/11 01:47:21;;;;;;;59.23;3.53;;;;;;;;;;5113418;28;20823;-69
2022/10/11 01:49:53;;;;;;;65.10;4.80;;;;;;;;;;5112835;28;20450;-69
2022/10/11 01:52:20;;;;;;;58.87;3.47;;;;;;;;;;5111597;28;20827;-70
2022/10/11 01:54:53;;;;;;;59.43;3.90;;;;;;;;;;5112999;27;20481;-70
2022/10/11 01:57:31;;;;;;;59.47;4.17;;;;;;;;;;5112789;28;20454;-69
2022/10/11 02:00:02;;;;;;;62.60;4.77;;;;;;;;;;5113070;28;20840;-69
2022/10/11 02:02:39;;;;;;;58.47;4.20;;;;;;;;;;5113173;27;20836;-69
2022/10/11 02:05:09;;;;;;;58.60;3.60;;;;;;;;;;5113155;28;20469;-69
2022/10/11 02:07:41;;;;;;;59.37;3.37;;;;;;;;;;5112378;28;20452;-69
2022/10/11 02:10:12;;;;;;;58.50;3.30;;;;;;;;;;5112876;28;20451;-69
2022/10/11 02:12:42;;;;;;;59.30;3.33;;;;;;;;;;5112951;28;20453;-69
2022/10/11 02:15:10;;;;;;;59.50;3.67;;;;;;;;;;5112127;28;20497;-69
2022/10/11 02:17:40;;;;;;;58.80;3.70;;;;;;;;;;5112802;28;20450;-69
2022/10/11 02:20:10;;;;;;;58.80;3.73;;;;;;;;;;5111963;28;20453;-70
2022/10/11 02:22:39;;;;;;;58.37;3.93;;;;;;;;;;5112719;28;20454;-70
2022/10/11 02:25:08;;;;;;;59.53;4.50;;;;;;;;;;5112561;28;20476;-69
2022/10/11 02:27:37;;;;;;;59.57;3.93;;;;;;;;;;5112673;28;20447;-69
2022/10/11 02:30:07;;;;;;;59.17;4.20;;;;;;;;;;5111931;28;20526;-69
2022/10/11 02:32:34;;;;;;;59.40;3.53;;;;;;;;;;5112542;28;20450;-69
2022/10/11 02:35:04;;;;;;;58.80;3.40;;;;;;;;;;5112213;28;20487;-70
2022/10/11 02:37:32;;;;;;;60.93;3.70;;;;;;;;;;5112598;28;20840;-69
2022/10/11 02:39:59;;;;;;;58.43;3.80;;;;;;;;;;5112231;28;20823;-70
2022/10/11 02:42:29;;;;;;;58.30;3.30;;;;;;;;;;5111914;28;21067;-69
2022/10/11 02:44:59;;;;;;;59.80;3.50;;;;;;;;;;5112320;28;20967;-69
2022/10/11 02:47:27;;;;;;;59.73;4.40;;;;;;;;;;5112441;28;20455;-70
2022/10/11 02:49:54;;;;;;;60.07;4.00;;;;;;;;;;5112151;28;20456;-69
2022/10/11 02:52:22;;;;;;;59.10;4.10;;;;;;;;;;5112238;28;20446;-70
2022/10/11 02:54:49;;;;;;;59.53;3.90;;;;;;;;;;5111618;28;20493;-69
2022/10/11 02:57:16;;;;;;;59.63;4.63;;;;;;;;;;5112235;28;20455;-70
2022/10/11 02:59:44;;;;;;;60.23;4.37;;;;;;;;;;5112177;28;20449;-70
2022/10/11 03:02:11;;;;;;;58.50;3.67;;;;;;;;;;5112331;28;20459;-70
2022/10/11 03:04:38;;;;;;;58.40;3.70;;;;;;;;;;5111455;28;20961;-70
2022/10/11 03:07:05;;;;;;;58.50;3.50;;;;;;;;;;5112066;28;20464;-69
2022/10/11 03:09:34;;;;;;;60.87;3.80;;;;;;;;;;5111807;28;20469;-69
2022/10/11 03:12:01;;;;;;;60.20;3.90;;;;;;;;;;5112081;28;20453;-69
2022/10/11 03:14:28;;;;;;;60.87;4.03;;;;;;;;;;5111896;28;20488;-69
2022/10/11 03:16:55;;;;;;;59.83;4.20;;;;;;;;;;5111632;28;20465;-70
2022/10/11 03:19:22;;;;;;;58.60;3.30;;;;;;;;;;5111830;28;20457;-70
2022/10/11 03:21:49;;;;;;;62.00;5.37;;;;;;;;;;5111957;28;20974;-69
2022/10/11 03:24:16;;;;;;;60.60;4.17;;;;;;;;;;5111919;28;20758;-70
2022/10/11 03:26:45;;;;;;;61.67;5.07;;;;;;;;;;5115568;28;20483;-70
2022/10/11 03:29:12;;;;;;;65.50;5.93;;;;;;;;;;5115524;28;20447;-70
2022/10/11 03:31:39;;;;;;;62.73;5.03;;;;;;;;;;5116061;28;20452;-70
2022/10/11 03:34:06;;;;;;;59.80;4.50;;;;;;;;;;5115777;27;20485;-69
2022/10/11 03:36:34;;;;;;;64.07;4.83;;;;;;;;;;5115981;28;20479;-69
2022/10/11 03:39:02;;;;;;;58.73;3.80;;;;;;;;;;5115251;28;20549;-70
2022/10/11 03:41:29;;;;;;;61.60;6.70;;;;;;;;;;5115578;28;20457;-70
2022/10/11 03:43:57;;;;;;;61.90;5.90;;;;;;;;;;5115740;28;20448;-70
2022/10/11 03:46:24;;;;;;;60.80;4.07;;;;;;;;;;5115742;28;20478;-70
2022/10/11 03:48:52;;;;;;;66.57;5.43;;;;;;;;;;5115425;28;20507;-69
2022/10/11 03:51:19;;;;;;;63.73;5.27;;;;;;;;;;5115619;28;20477;-70
2022/10/11 03:53:46;;;;;;;59.20;4.63;;;;;;;;;;5115508;28;20484;-70
2022/10/11 03:56:13;;;;;;;63.70;4.73;;;;;;;;;;5115354;28;20463;-69
2022/10/11 03:58:41;;;;;;;64.20;4.93;;;;;;;;;;5115225;28;20467;-70
2022/10/11 04:01:09;;;;;;;61.33;5.20;;;;;;;;;;5115333;28;20852;-69
2022/10/11 04:03:37;;;;;;;59.90;4.50;;;;;;;;;;5115105;28;20454;-70
2022/10/11 04:06:04;;;;;;;62.90;5.00;;;;;;;;;;5115783;28;20469;-70
2022/10/11 04:08:31;;;;;;;60.60;4.87;;;;;;;;;;5115506;28;20452;-70
2022/10/11 04:10:58;;;;;;;61.23;4.60;;;;;;;;;;5115604;28;20462;-70
2022/10/11 04:13:25;;;;;;;62.17;5.13;;;;;;;;;;5114715;28;20951;-70
2022/10/11 04:15:52;;;;;;;63.57;5.50;;;;;;;;;;5115104;28;20470;-69
2022/10/11 04:18:21;;;;;;;67.40;6.57;;;;;;;;;;5114944;28;20439;-70
2022/10/11 04:20:48;;;;;;;61.80;6.10;;;;;;;;;;5114883;28;20447;-70
2022/10/11 04:23:15;;;;;;;62.00;5.30;;;;;;;;;;5114952;28;20467;-69
2022/10/11 04:25:42;;;;;;;60.53;5.80;;;;;;;;;;5114420;28;20996;-69
2022/10/11 04:28:09;;;;;;;61.57;5.73;;;;;;;;;;5114972;28;20450;-69
2022/10/11 04:30:37;;;;;;;61.37;5.83;;;;;;;;;;5114349;28;21006;-69
2022/10/11 04:33:04;;;;;;;61.67;5.83;;;;;;;;;;5114788;28;20452;-70
2022/10/11 04:35:32;;;;;;;60.40;5.30;;;;;;;;;;5114462;28;20571;-70
2022/10/11 04:37:59;;;;;;;63.97;6.03;;;;;;;;;;5113511;28;20501;-70
2022/10/11 04:40:27;;;;;;;59.90;5.40;;;;;;;;;;5114340;28;20467;-69
2022/10/11 04:42:54;;;;;;;64.17;5.80;;;;;;;;;;5114713;28;20452;-69
2022/10/11 04:45:21;;;;;;;62.87;6.07;;;;;;;;;;5114438;28;20465;-70
2022/10/11 04:47:48;;;;;;;61.40;4.70;;;;;;;;;;5114678;28;20456;-70
2022/10/11 04:50:15;;;;;;;70.80;5.30;;;;;;;;;;5113907;28;20456;-70
2022/10/11 04:52:44;;;;;;;64.10;6.57;;;;;;;;;;5114683;28;20479;-70
2022/10/11 04:55:11;;;;;;;61.37;5.30;;;;;;;;;;5114082;28;20553;-69
2022/10/11 04:57:38;;;;;;;65.30;6.10;;;;;;;;;;5114291;28;20455;-69
2022/10/11 05:00:06;;;;;;;63.43;5.37;;;;;;;;;;5113317;28;20456;-70
2022/10/11 05:02:33;;;;;;;68.00;6.43;;;;;;;;;;5114267;28;20510;-69
2022/10/11 05:05:00;;;;;;;61.60;5.40;;;;;;;;;;5113964;28;20449;-69
2022/10/11 05:07:27;;;;;;;61.70;5.23;;;;;;;;;;5114315;28;20454;-69
2022/10/11 05:09:56;;;;;;;61.40;5.10;;;;;;;;;;5113740;27;20449;-69
2022/10/11 05:12:23;;;;;;;72.80;6.07;;;;;;;;;;5113623;28;20451;-69
2022/10/11 05:14:51;;;;;;;60.77;5.50;;;;;;;;;;5113838;28;20868;-71
2022/10/11 05:17:18;;;;;;;59.27;4.23;;;;;;;;;;5113519;28;20458;-69
2022/10/11 05:19:45;;;;;;;61.87;5.70;;;;;;;;;;5113484;28;20455;-70
2022/10/11 05:22:12;;;;;;;62.30;7.80;;;;;;;;;;5113451;28;20453;-69
2022/10/11 05:24:39;;;;;;;64.50;4.80;;;;;;;;;;5113723;28;20811;-69
2022/10/11 05:27:07;;;;;;;64.33;5.73;;;;;;;;;;5113898;28;20463;-69
2022/10/11 05:29:35;;;;;;;69.27;6.13;;;;;;;;;;5113340;28;20934;-69
2022/10/11 05:32:02;;;;;;;60.40;5.30;;;;;;;;;;5113425;28;20455;-69
2022/10/11 05:34:29;;;;;;;61.87;6.10;;;;;;;;;;5113025;28;20498;-69
2022/10/11 05:36:56;;;;;;;61.73;5.30;;;;;;;;;;5113611;28;20560;-69
2022/10/11 05:39:23;;;;;;;63.03;6.67;;;;;;;;;;5113329;28;21017;-69
2022/10/11 05:41:51;;;;;;;61.77;5.00;;;;;;;;;;5113527;28;20536;-69
2022/10/11 05:44:20;;;;;;;61.47;5.07;;;;;;;;;;5113221;28;20455;-69
2022/10/11 05:46:47;;;;;;;62.17;5.27;;;;;;;;;;5112947;28;20473;-69
2022/10/11 05:49:14;;;;;;;65.47;7.50;;;;;;;;;;5112845;27;20455;-69
2022/10/11 05:51:41;;;;;;;66.17;7.13;;;;;;;;;;5113175;27;20443;-69
2022/10/11 05:54:08;;;;;;;61.23;5.60;;;;;;;;;;5113203;28;20486;-69
2022/10/11 05:56:35;;;;;;;61.00;5.60;;;;;;;;;;5113382;28;20896;-69
2022/10/11 05:59:02;;;;;;;62.07;5.33;;;;;;;;;;5112349;28;20448;-69
2022/10/11 06:01:31;;;;;;;64.07;5.80;;;;;;;;;;5113248;28;20445;-69
2022/10/11 06:03:58;;;;;;;63.27;5.20;;;;;;;;;;5113228;28;20444;-69
2022/10/11 06:06:25;;;;;;;68.90;6.00;;;;;;;;;;5113035;28;20464;-69
2022/10/11 06:08:52;;;;;;;61.30;6.50;;;;;;;;;;5112193;28;20450;-70
2022/10/11 06:11:21;;;;;;;62.87;5.17;;;;;;;;;;5112924;28;20818;-69
2022/10/11 06:13:48;;;;;;;60.17;5.40;;;;;;;;;;5113061;28;20454;-69
2022/10/11 06:16:15;;;;;;;61.37;5.53;;;;;;;;;;5112716;28;20472;-69
2022/10/11 06:18:44;;;;;;;66.10;7.60;;;;;;;;;;5112635;28;20501;-69
2022/10/11 06:21:11;;;;;;;63.27;5.73;;;;;;;;;;5112363;28;20953;-69
2022/10/11 06:23:39;;;;;;;63.90;5.03;;;;;;;;;;5113213;28;20448;-69
2022/10/11 06:26:07;;;;;;;63.33;6.20;;;;;;;;;;5112470;28;20563;-69
2022/10/11 06:28:35;;;;;;;62.90;5.50;;;;;;;;;;5112221;28;20456;-70
2022/10/11 06:31:03;;;;;;;95.60;7.40;;;;;;;;;;5112593;28;20456;-69
2022/10/11 06:33:30;;;;;;;63.60;6.40;;;;;;;;;;5112720;28;20476;-69
2022/10/11 06:35:59;;;;;;;61.47;5.13;;;;;;;;;;5112441;28;20839;-69
2022/10/11 06:38:27;;;;;;;63.37;5.20;;;;;;;;;;5112354;28;20448;-69
2022/10/11 06:40:54;;;;;;;62.73;6.00;;;;;;;;;;5111991;28;20448;-69
2022/10/11 06:43:21;;;;;;;61.03;5.67;;;;;;;;;;5112783;28;20445;-69
2022/10/11 06:45:48;;;;;;;60.50;5.40;;;;;;;;;;5112468;28;20461;-69
2022/10/11 06:48:15;;;;;;;60.53;5.03;;;;;;;;;;5112121;28;20460;-69
2022/10/11 06:50:42;;;;;;;63.33;5.33;;;;;;;;;;5112138;28;20448;-69
2022/10/11 06:53:11;;;;;;;60.17;4.93;;;;;;;;;;5111688;28;20455;-69
2022/10/11 06:55:38;;;;;;;60.97;4.57;;;;;;;;;;5112191;28;20496;-69
2022/10/11 06:58:05;;;;;;;63.07;6.43;;;;;;;;;;5112289;28;20444;-69
2022/10/11 07:00:32;;;;;;;62.00;5.50;;;;;;;;;;5111334;28;20952;-69
2022/10/11 07:02:59;;;;;;;61.40;5.60;;;;;;;;;;5112262;28;20452;-70
2022/10/11 07:05:28;;;;;;;62.30;5.37;;;;;;;;;;5111764;28;20472;-69
2022/10/11 07:07:55;;;;;;;61.50;5.30;;;;;;;;;;5111881;28;20519;-69
2022/10/11 07:10:23;;;;;;;63.43;5.87;;;;;;;;;;5112029;28;20529;-69
2022/10/11 07:12:50;;;;;;;62.47;7.50;;;;;;;;;;5112205;28;20448;-68
2022/10/11 07:15:18;;;;;;;60.40;5.03;;;;;;;;;;5111960;28;20996;-69
2022/10/11 07:17:45;;;;;;;62.30;5.60;;;;;;;;;;5111557;28;20469;-69
2022/10/11 07:20:12;;;;;;;60.13;4.50;;;;;;;;;;5111650;28;20826;-69
2022/10/11 07:22:39;;;;;;;60.80;4.60;;;;;;;;;;5112252;28;20446;-69
2022/10/11 07:25:07;;;;;;;59.20;4.00;;;;;;;;;;5111837;28;20473;-69
2022/10/11 07:27:35;;;;;;;68.07;6.80;;;;;;;;;;5111972;28;20458;-69
2022/10/11 07:30:02;;;;;;;63.63;6.00;;;;;;;;;;5111141;28;20448;-69
2022/10/11 07:32:29;;;;;;;67.37;6.30;;;;;;;;;;5111904;28;20958;-69
2022/10/11 07:34:56;;;;;;;61.73;4.80;;;;;;;;;;5111565;28;20499;-69
2022/10/11 07:37:24;;;;;;;62.87;5.60;;;;;;;;;;5111887;28;20487;-69
2022/10/11 07:39:51;;;;;;;62.17;4.80;;;;;;;;;;5111548;28;20489;-69
2022/10/11 07:42:18;;;;;;;61.23;5.80;;;;;;;;;;5111585;28;20941;-69
2022/10/11 07:44:46;;;;;;;65.93;5.20;;;;;;;;;;5111845;28;20437;-69
2022/10/11 07:47:14;;;;;;;62.10;5.73;;;;;;;;;;5111679;28;20959;-69
2022/10/11 07:49:41;;;;;;;62.17;4.90;;;;;;;;;;5111391;28;20479;-69
2022/10/11 07:52:08;;;;;;;63.73;5.60;;;;;;;;;;5111146;28;20457;-69
2022/10/11 07:54:35;;;;;;;61.87;5.47;;;;;;;;;;5111724;28;20449;-69
2022/10/11 07:57:02;;;;;;;61.13;4.47;;;;;;;;;;5111736;28;20461;-69
2022/10/11 07:59:29;;;;;;;61.50;4.73;;;;;;;;;;5111313;28;20445;-69
2022/10/11 08:01:57;;;;;;;60.23;5.47;;;;;;;;;;5111571;28;20442;-68
2022/10/11 08:04:25;;;;;;;63.60;6.10;;;;;;;;;;5111066;28;20451;-69
2022/10/11 08:06:52;;;;;;;61.90;5.40;;;;;;;;;;5111682;28;20840;-69
2022/10/11 08:09:19;;;;;;;62.27;5.97;;;;;;;;;;5111252;28;20761;-68
2022/10/11 08:11:46;;;;;;;62.40;6.40;;;;;;;;;;5112156;28;20445;-69
2022/10/11 08:14:13;;;;;;;63.50;5.27;;;;;;;;;;5115007;28;20459;-69
2022/10/11 08:16:40;;;;;;;62.67;5.50;;;;;;;;;;5114725;28;20499;-68
2022/10/11 08:19:10;;;;;;;63.13;5.43;;;;;;;;;;5115015;28;20445;-68
2022/10/11 08:21:37;;;;;;;63.03;5.40;;;;;;;;;;5115281;28;20827;-68
2022/10/11 08:24:05;;;;;;;63.23;6.70;;;;;;;;;;5114992;28;20441;-69
2022/10/11 08:26:32;;;;;;;65.20;5.90;;;;;;;;;;5114394;28;20467;-68
2022/10/11 08:29:01;;;;;;;63.67;6.17;;;;;;;;;;5114601;28;20446;-68
2022/10/11 08:31:28;;;;;;;69.47;6.00;;;;;;;;;;5115159;28;20807;-68
2022/10/11 08:33:55;;;;;;;60.67;4.73;;;;;;;;;;5114909;28;20462;-68
2022/10/11 08:36:23;;;;;;;62.33;5.70;;;;;;;;;;5114859;28;20512;-69
2022/10/11 08:38:50;;;;;;;66.00;6.40;;;;;;;;;;5113643;27;20967;-68
2022/10/11 08:41:30;;;;;;;64.40;6.23;;;;;;;;;;5114771;28;20452;-68
2022/10/11 08:44:15;;;;;;;62.07;5.77;;;;;;;;;;5114927;28;20456;-68
2022/10/11 08:46:44;;;;;;;65.07;6.13;;;;;;;;;;5114399;28;20473;-68
2022/10/11 08:49:13;;;;;;;64.20;6.30;;;;;;;;;;5114303;28;20446;-69
2022/10/11 08:51:43;;;;;;;62.37;6.43;;;;;;;;;;5114583;28;20967;-69
2022/10/11 08:54:14;;;;;;;65.00;7.20;;;;;;;;;;5114676;28;20444;-69
2022/10/11 08:56:42;;;;;;;66.67;6.33;;;;;;;;;;5114328;28;20867;-68
2022/10/11 08:59:18;;;;;;;62.30;5.37;;;;;;;;;;5113705;28;20480;-69
2022/10/11 09:01:50;;;;;;;62.67;5.53;;;;;;;;;;5114458;28;20453;-68
2022/10/11 09:04:18;;;;;;;62.47;6.10;;;;;;;;;;5114264;28;20460;-69
2022/10/11 09:06:51;;;;;;;61.87;5.67;;;;;;;;;;5114143;28;20985;-68
2022/10/11 09:09:32;;;;;;;62.50;6.77;;;;;;;;;;5113376;28;20837;-69
2022/10/11 09:12:04;;;;;;;68.87;7.97;;;;;;;;;;5114076;28;20442;-69
2022/10/11 09:14:42;;;;;;;61.60;5.20;;;;;;;;;;5114210;28;20450;-69
2022/10/11 09:17:14;;;;;;;61.27;5.13;;;;;;;;;;5114148;28;20500;-69
2022/10/11 09:19:49;;;;;;;62.90;5.47;;;;;;;;;;5113627;28;20441;-69
2022/10/11 09:22:23;;;;;;;63.70;6.00;;;;;;;;;;5113645;28;20536;-69
2022/10/11 09:25:01;;;;;;;62.00;5.43;;;;;;;;;;5113584;28;20956;-68
2022/10/11 09:27:31;;;;;;;63.37;6.17;;;;;;;;;;5113523;28;20458;-69
2022/10/11 09:30:00;;;;;;;68.13;6.30;;;;;;;;;;5113472;28;20457;-69
2022/10/11 09:32:30;;;;;;;62.60;6.30;;;;;;;;;;5113763;28;20453;-69
2022/10/11 09:35:00;;;;;;;69.90;7.23;;;;;;;;;;5113403;28;20462;-69
2022/10/11 09:37:31;;;;;;;62.50;5.83;;;;;;;;;;5113572;28;20446;-69
2022/10/11 09:40:02;;;;;;;64.50;7.33;;;;;;;;;;5113434;28;20507;-69
2022/10/11 09:42:29;;;;;;;65.90;6.20;;;;;;;;;;5113712;28;20533;-69
2022/10/11 09:44:58;;;;;;;63.90;6.47;;;;;;;;;;5112799;28;20450;-69
2022/10/11 09:47:27;;;;;;;64.57;6.20;;;;;;;;;;5113644;28;20672;-69
2022/10/11 09:49:57;;;;;;;65.03;8.87;;;;;;;;;;5113120;28;20445;-69
2022/10/11 09:52:24;;;;;;;63.07;5.83;;;;;;;;;;5113247;28;20450;-71
2022/10/11 09:54:55;;;;;;;64.97;6.00;;;;;;;;;;5113495;28;20449;-70
2022/10/11 09:57:23;;;;;;;61.53;6.90;;;;;;;;;;5112479;28;20488;-69
2022/10/11 10:00:01;;;;;;;64.43;6.70;;;;;;;;;;5112936;28;20445;-69
2022/10/11 10:02:28;;;;;;;63.77;6.10;;;;;;;;;;5113146;28;20957;-69
2022/10/11 10:04:56;;;;;;;63.27;5.90;;;;;;;;;;5112918;28;20445;-70
2022/10/11 10:07:23;;;;;;;62.27;6.73;;;;;;;;;;5112614;28;20446;-70
2022/10/11 10:09:51;;;;;;;67.73;6.23;;;;;;;;;;5112807;28;20456;-70
2022/10/11 10:12:22;;;;;;;65.17;6.37;;;;;;;;;;5113098;28;20496;-70
2022/10/11 10:14:55;;;;;;;62.67;5.87;;;;;;;;;;5112907;28;20941;-70
2022/10/11 10:17:22;;;;;;;62.87;5.10;;;;;;;;;;5112771;28;20844;-70
2022/10/11 10:19:50;;;;;;;63.30;7.53;;;;;;;;;;5111979;28;20453;-70
2022/10/11 10:22:19;;;;;;;61.40;5.70;;;;;;;;;;5112143;28;21062;-70
2022/10/11 10:24:48;;;;;;;63.20;5.83;;;;;;;;;;5112174;28;20945;-70
2022/10/11 10:27:17;;;;;;;63.53;6.10;;;;;;;;;;5112793;28;20461;-70
2022/10/11 10:30:00;;;;;;;64.90;5.90;;;;;;;;;;5112228;28;20441;-70
2022/10/11 10:32:28;;;;;;;61.63;6.20;;;;;;;;;;5112852;28;20454;-70
2022/10/11 10:34:58;;;;;;;62.40;6.13;;;;;;;;;;5111602;28;20468;-70
2022/10/11 10:37:27;;;;;;;67.30;6.63;;;;;;;;;;5112027;28;20488;-70
2022/10/11 10:39:57;;;;;;;60.40;5.90;;;;;;;;;;5112186;28;20497;-71
2022/10/11 10:42:24;;;;;;;63.10;5.90;;;;;;;;;;5112459;28;20810;-70
2022/10/11 10:44:53;;;;;;;64.93;5.40;;;;;;;;;;5112643;28;20442;-70
2022/10/11 10:47:25;;;;;;;61.70;6.07;;;;;;;;;;5111766;28;20982;-70
2022/10/11 10:49:55;;;;;;;65.97;5.67;;;;;;;;;;5112229;28;20804;-70
2022/10/11 10:52:37;;;;;;;66.00;5.20;;;;;;;;;;5112599;28;20454;-70
2022/10/11 10:55:08;;;;;;;61.13;5.10;;;;;;;;;;5112744;28;20449;-70
2022/10/11 10:57:38;;;;;;;62.03;4.90;;;;;;;;;;5112470;28;20491;-70
2022/10/11 11:00:13;;;;;;;60.87;4.30;;;;;;;;;;5111453;28;20454;-70
2022/10/11 11:02:44;;;;;;;63.27;6.20;;;;;;;;;;5112324;28;20502;-70
2022/10/11 11:05:19;;;;;;;63.80;6.20;;;;;;;;;;5111840;28;20506;-69
2022/10/11 11:07:48;;;;;;;61.57;4.60;;;;;;;;;;5110607;28;20513;-69
2022/10/11 11:10:17;;;;;;;64.50;5.87;;;;;;;;;;5110987;28;20909;-70
2022/10/11 11:12:46;;;;;;;61.90;6.20;;;;;;;;;;5112238;28;20521;-70
2022/10/11 11:15:17;;;;;;;60.37;4.63;;;;;;;;;;5112034;28;20457;-69
2022/10/11 11:17:59;;;;;;;62.40;6.03;;;;;;;;;;5111969;28;20512;-69
2022/10/11 11:20:34;;;;;;;61.70;5.50;;;;;;;;;;5109560;28;20457;-69
2022/10/11 11:23:07;;;;;;;62.37;4.83;;;;;;;;;;5111367;28;20456;-69
2022/10/11 11:25:42;;;;;;;61.10;5.33;;;;;;;;;;5112051;28;20464;-70
2022/10/11 11:28:19;;;;;;;60.70;5.60;;;;;;;;;;5111897;28;20456;-69
2022/10/11 11:30:51;;;;;;;68.23;6.10;;;;;;;;;;5111802;28;20938;-69
2022/10/11 11:33:22;;;;;;;61.60;4.83;;;;;;;;;;5111478;28;20807;-69
2022/10/11 11:35:52;;;;;;;64.37;5.47;;;;;;;;;;5111534;28;20500;-69
2022/10/11 11:38:26;;;;;;;62.80;5.00;;;;;;;;;;5111912;28;20452;-69
2022/10/11 11:40:55;;;;;;;61.40;5.33;;;;;;;;;;5111731;28;21094;-69
2022/10/11 11:43:24;;;;;;;63.17;5.60;;;;;;;;;;5112076;28;20449;-69
2022/10/11 11:45:55;;;;;;;61.40;5.60;;;;;;;;;;5111720;28;20472;-69
2022/10/11 11:48:24;;;;;;;60.87;5.63;;;;;;;;;;5115867;28;20886;-69
2022/10/11 11:50:55;;;;;;;60.67;5.30;;;;;;;;;;5115526;28;20535;-69
2022/10/11 11:53:25;;;;;;;62.13;4.73;;;;;;;;;;5115865;28;20449;-69
2022/10/11 11:55:56;;;;;;;63.07;5.70;;;;;;;;;;5115282;28;20477;-69
2022/10/11 11:58:28;;;;;;;62.90;5.40;;;;;;;;;;5115399;28;20449;-69
2022/10/11 12:00:59;;;;;;;60.70;4.40;;;;;;;;;;5115503;28;20961;-69
2022/10/11 12:03:28;;;;;;;64.33;6.63;;;;;;;;;;5115573;28;20472;-69
2022/10/11 12:06:14;;;;;;;60.40;4.40;;;;;;;;;;5115312;28;20470;-69
2022/10/11 12:08:41;;;;;;;61.80;5.80;;;;;;;;;;5114476;28;20818;-69
2022/10/11 12:11:18;;;;;;;61.57;4.80;;;;;;;;;;5115458;28;20442;-69
2022/10/11 12:13:46;;;;;;;69.20;4.83;;;;;;;;;;5115840;28;20456;-69
2022/10/11 12:16:15;;;;;;;61.27;6.50;;;;;;;;;;5115002;28;20481;-69
2022/10/11 12:18:49;;;;;;;59.87;5.00;;;;;;;;;;5114437;28;20595;-69
2022/10/11 12:21:20;;;;;;;64.00;5.33;;;;;;;;;;5114906;28;20441;-69
2022/10/11 12:23:48;;;;;;;61.40;5.87;;;;;;;;;;5115093;28;20455;-69
2022/10/11 12:26:31;;;;;;;60.60;5.10;;;;;;;;;;5113921;28;20465;-69
2022/10/11 12:29:13;;;;;;;61.73;5.20;;;;;;;;;;5114918;28;20449;-69
2022/10/11 12:31:42;;;;;;;60.57;5.00;;;;;;;;;;5114745;28;20960;-69
2022/10/11 12:34:33;;;;;;;60.20;5.10;;;;;;;;;;5113991;28;20504;-69
2022/10/11 12:37:00;;;;;;;60.23;5.43;;;;;;;;;;5114633;28;20489;-69
2022/10/11 12:39:51;;;;;;;61.23;4.80;;;;;;;;;;5114609;27;20464;-69
2022/10/11 12:42:20;;;;;;;60.93;5.00;;;;;;;;;;5114606;28;20541;-69
2022/10/11 12:45:02;;;;;;;60.40;4.87;;;;;;;;;;5113842;28;20452;-69
2022/10/11 12:47:37;;;;;;;62.70;4.90;;;;;;;;;;5114871;28;20426;-69
2022/10/11 12:50:12;;;;;;;61.57;5.07;;;;;;;;;;5114268;28;20895;-69
2022/10/11 12:52:43;;;;;;;65.10;5.70;;;;;;;;;;5114492;28;20445;-69
2022/10/11 12:55:18;;;;;;;61.60;5.23;;;;;;;;;;5114242;28;20469;-69
2022/10/11 12:57:54;;;;;;;63.20;5.50;;;;;;;;;;5113113;28;20507;-69
2022/10/11 13:00:26;;;;;;;62.87;5.30;;;;;;;;;;5114125;28;20945;-69
2022/10/11 13:02:55;;;;;;;61.40;5.87;;;;;;;;;;5114387;28;20449;-69
2022/10/11 13:05:25;;;;;;;60.50;5.17;;;;;;;;;;5114330;28;20465;-69
2022/10/11 13:07:53;;;;;;;63.20;5.00;;;;;;;;;;5113578;28;20817;-69
2022/10/11 13:10:23;;;;;;;60.60;4.23;;;;;;;;;;5113798;28;20460;-69
2022/10/11 13:12:50;;;;;;;59.10;4.30;;;;;;;;;;5114293;28;20450;-69
2022/10/11 13:15:19;;;;;;;62.70;4.97;;;;;;;;;;5114103;28;20469;-69
2022/10/11 13:17:47;;;;;;;62.00;5.70;;;;;;;;;;5113965;28;20491;-69
2022/10/11 13:20:19;;;;;;;67.57;4.63;;;;;;;;;;5113339;28;20477;-69
2022/10/11 13:22:47;;;;;;;60.47;5.70;;;;;;;;;;5113863;28;20453;-69
2022/10/11 13:25:15;;;;;;;62.13;5.07;;;;;;;;;;5113981;28;20461;-69
2022/10/11 13:27:43;;;;;;;59.10;4.07;;;;;;;;;;5113991;28;20442;-69
2022/10/11 13:30:13;;;;;;;59.53;4.27;;;;;;;;;;5112924;28;20445;-69
2022/10/11 13:32:40;;;;;;;60.20;4.67;;;;;;;;;;5113612;28;20826;-69
2022/10/11 13:35:15;;;;;;;60.17;4.37;;;;;;;;;;5113376;28;20477;-69
2022/10/11 13:37:45;;;;;;;58.97;3.90;;;;;;;;;;5113580;28;20533;-69
2022/10/11 13:40:14;;;;;;;58.83;3.50;;;;;;;;;;5113364;28;20453;-69
2022/10/11 13:42:41;;;;;;;59.80;4.40;;;;;;;;;;5112956;28;20449;-69
2022/10/11 13:45:11;;;;;;;64.67;4.33;;;;;;;;;;5113428;28;20465;-69
2022/10/11 13:47:39;;;;;;;59.20;4.30;;;;;;;;;;5113302;28;20449;-69
2022/10/11 13:50:10;;;;;;;61.80;4.60;;;;;;;;;;5113038;28;20450;-69
2022/10/11 13:52:47;;;;;;;61.27;4.50;;;;;;;;;;5113304;28;20544;-69
2022/10/11 13:55:22;;;;;;;59.57;4.70;;;;;;;;;;5113023;28;20469;-69
2022/10/11 13:57:51;;;;;;;59.67;4.10;;;;;;;;;;5113138;28;20848;-69
2022/10/11 14:00:25;;;;;;;61.20;4.37;;;;;;;;;;5112831;28;20540;-69
2022/10/11 14:02:54;;;;;;;65.50;4.33;;;;;;;;;;5113132;28;20449;-69
2022/10/11 14:05:24;;;;;;;63.27;5.07;;;;;;;;;;5112579;28;20469;-68
2022/10/11 14:07:51;;;;;;;59.80;3.97;;;;;;;;;;5113134;28;20445;-69
2022/10/11 14:10:20;;;;;;;63.60;4.60;;;;;;;;;;5112604;28;20452;-69
2022/10/11 14:12:58;;;;;;;63.67;4.03;;;;;;;;;;5112917;28;20454;-69
2022/10/11 14:15:27;;;;;;;60.17;5.00;;;;;;;;;;5112781;28;20467;-69
2022/10/11 14:17:54;;;;;;;61.57;5.00;;;;;;;;;;5112139;28;20478;-69
2022/10/11 14:20:23;;;;;;;61.13;4.63;;;;;;;;;;5112597;28;20449;-69
2022/10/11 14:22:51;;;;;;;61.37;5.03;;;;;;;;;;5112752;28;20522;-68
2022/10/11 14:25:18;;;;;;;61.50;4.90;;;;;;;;;;5110186;28;20473;-67
2022/10/11 14:27:47;;;;;;;60.70;4.40;;;;;;;;;;5112211;28;20552;-68
2022/10/11 14:30:17;;;;;;;63.00;5.53;;;;;;;;;;5112040;28;20973;-69
2022/10/11 14:32:45;;;;;;;61.73;5.53;;;;;;;;;;5112464;28;20457;-69
2022/10/11 14:35:15;;;;;;;61.37;4.00;;;;;;;;;;5112273;28;20483;-70
2022/10/11 14:37:42;;;;;;;63.60;5.23;;;;;;;;;;5112243;28;20481;-68
2022/10/11 14:40:13;;;;;;;62.40;4.63;;;;;;;;;;5111607;28;20485;-68
2022/10/11 14:42:40;;;;;;;61.80;5.67;;;;;;;;;;5112502;28;21234;-68
2022/10/11 14:45:09;;;;;;;60.97;4.70;;;;;;;;;;5112363;28;20457;-67